Time;durP1;ratioP1;P1;durP2;ratioP2;P2;SDS_P1;SDS_P2;PMS_P1;PMS_P2;Temp;Humidity;BMP_temperature;BMP_pressure;BME280_temperature;BME280_humidity;BME280_pressure;Samples;Min_cycle;Max_cycle;Signal;HPM_P1;HPM_P2
2021/05/28 00:00:38;;;;;;;1152.90;999.90;;;;;;;19.05;44.52;100516.16;4981884;28;20050;-61
2021/05/28 00:03:04;;;;;;;1152.55;999.90;;;;;;;19.04;44.40;100511.75;4988128;28;20042;-62
2021/05/28 00:05:30;;;;;;;1150.47;999.90;;;;;;;19.03;44.55;100521.78;4992340;28;20611;-60
2021/05/28 00:07:56;;;;;;;1155.88;999.90;;;;;;;19.03;44.60;100523.69;4990168;28;20057;-61
2021/05/28 00:10:22;;;;;;;1156.88;999.90;;;;;;;19.02;44.52;100522.00;4992332;28;20599;-60
2021/05/28 00:12:48;;;;;;;1154.70;999.90;;;;;;;19.03;44.54;100529.13;4985646;28;20145;-59
2021/05/28 00:15:14;;;;;;;1156.97;999.90;;;;;;;18.99;44.62;100523.22;4977711;28;20022;-60
2021/05/28 00:17:40;;;;;;;1154.53;999.90;;;;;;;18.99;44.50;100529.50;4992245;28;20049;-60
2021/05/28 00:20:09;;;;;;;1152.93;999.90;;;;;;;18.97;44.49;100531.59;4992069;28;20034;-60
2021/05/28 00:22:35;;;;;;;1154.15;999.90;;;;;;;18.98;44.41;100530.53;4991028;28;20049;-60
2021/05/28 00:25:01;;;;;;;1153.40;999.90;;;;;;;18.99;44.44;100529.50;4992395;28;20467;-59
2021/05/28 00:27:30;;;;;;;1154.00;999.90;;;;;;;18.98;44.35;100533.25;4991682;28;20052;-61
2021/05/28 00:29:57;;;;;;;1152.68;999.90;;;;;;;18.96;44.40;100535.34;4989752;28;20039;-61
2021/05/28 00:32:23;;;;;;;1153.15;999.90;;;;;;;18.97;44.50;100538.91;4988239;28;20517;-62
2021/05/28 00:34:50;;;;;;;1155.03;999.90;;;;;;;18.95;44.45;100538.25;4992064;28;20030;-60
2021/05/28 00:37:16;;;;;;;1154.60;999.90;;;;;;;18.95;44.40;100541.81;4991180;28;20061;-60
2021/05/28 00:39:43;;;;;;;1155.38;999.90;;;;;;;18.95;44.48;100551.84;4986757;28;20034;-60
2021/05/28 00:42:08;;;;;;;1152.13;999.90;;;;;;;18.95;44.49;100549.97;4991248;28;20025;-60
2021/05/28 00:44:37;;;;;;;1154.28;999.90;;;;;;;18.92;44.58;100547.63;4989466;28;20041;-61
2021/05/28 00:47:03;;;;;;;1153.80;999.90;;;;;;;18.93;44.67;100549.28;4990138;28;20415;-60
2021/05/28 00:49:29;;;;;;;1163.55;999.90;;;;;;;18.93;44.49;100554.72;5006013;23;20041;-58
2021/05/28 00:51:55;;;;;;;1153.18;999.90;;;;;;;18.90;44.35;100557.00;5009616;28;20034;-62
2021/05/28 00:54:21;;;;;;;1153.90;999.90;;;;;;;18.91;44.54;100554.09;5012513;28;20037;-60
2021/05/28 00:56:48;;;;;;;1153.50;999.90;;;;;;;18.90;44.42;100557.00;5011221;28;20033;-61
2021/05/28 00:59:15;;;;;;;1155.35;999.90;;;;;;;18.90;44.53;100557.00;5011325;28;20026;-63
2021/05/28 01:01:41;;;;;;;1153.22;999.90;;;;;;;18.90;44.47;100554.28;5010801;28;20042;-64
2021/05/28 01:04:07;;;;;;;1154.05;999.90;;;;;;;18.89;44.45;100553.44;5010597;28;20037;-58
2021/05/28 01:06:34;;;;;;;1153.95;999.90;;;;;;;18.89;44.49;100568.91;5008829;28;20038;-62
2021/05/28 01:09:00;;;;;;;1155.15;999.90;;;;;;;18.88;44.74;100559.91;5011048;28;20037;-64
2021/05/28 01:11:26;;;;;;;1155.90;999.90;;;;;;;18.89;44.42;100571.63;5011424;28;20026;-60
2021/05/28 01:13:52;;;;;;;1155.63;999.90;;;;;;;18.87;44.48;100571.00;5008536;28;20029;-61
2021/05/28 01:16:18;;;;;;;1155.53;999.90;;;;;;;18.86;44.48;100567.44;5008514;28;20030;-62
2021/05/28 01:18:45;;;;;;;1156.28;999.90;;;;;;;18.87;44.47;100580.00;5011124;28;20037;-62
2021/05/28 01:21:12;;;;;;;1154.07;999.90;;;;;;;18.86;44.49;100582.91;5010393;28;20037;-61
2021/05/28 01:23:38;;;;;;;1153.47;999.90;;;;;;;18.86;44.56;100583.75;5009885;28;20049;-62
2021/05/28 01:26:05;;;;;;;1155.07;999.90;;;;;;;18.85;44.55;100586.66;5011016;28;20034;-58
2021/05/28 01:28:30;;;;;;;1149.75;999.90;;;;;;;18.84;44.50;100588.53;5009808;28;20049;-63
2021/05/28 01:30:58;;;;;;;1153.38;999.90;;;;;;;18.84;44.61;100596.69;5009815;28;20041;-63
2021/05/28 01:33:26;;;;;;;1152.28;999.90;;;;;;;18.85;44.55;100602.97;5010198;28;20057;-59
2021/05/28 01:35:55;;;;;;;1155.55;999.90;;;;;;;18.82;44.53;100601.44;5008286;28;20042;-61
2021/05/28 01:38:21;;;;;;;1154.20;999.90;;;;;;;18.84;44.51;100599.41;5011427;28;20032;-64
2021/05/28 01:40:47;;;;;;;1153.50;999.90;;;;;;;18.83;44.26;100602.31;5011085;28;20033;-59
2021/05/28 01:43:13;;;;;;;1155.25;999.90;;;;;;;18.82;44.49;100593.28;5008844;28;20036;-62
2021/05/28 01:45:39;;;;;;;1154.72;999.90;;;;;;;18.81;44.49;100597.03;5010489;28;20113;-63
2021/05/28 01:48:06;;;;;;;1157.30;999.90;;;;;;;18.81;44.40;100597.03;5010417;28;20046;-62
2021/05/28 01:50:44;;;;;;;1152.07;999.90;;;;;;;18.81;44.31;100605.22;5010861;28;20049;-62
2021/05/28 01:53:12;;;;;;;1153.88;999.90;;;;;;;18.80;44.33;100605.41;5009818;28;20029;-58
2021/05/28 01:55:38;;;;;;;1153.05;999.90;;;;;;;18.79;44.51;100607.28;5011273;28;20034;-62
2021/05/28 01:58:08;;;;;;;1154.20;999.90;;;;;;;18.80;44.29;100606.25;5010199;28;20481;-62
2021/05/28 02:00:34;;;;;;;1150.78;999.90;;;;;;;18.81;44.40;100607.09;5009192;28;20524;-60
2021/05/28 02:03:00;;;;;;;1152.38;999.90;;;;;;;18.81;44.34;100607.09;5008641;28;20033;-59
2021/05/28 02:05:26;;;;;;;1151.97;999.90;;;;;;;18.79;44.55;100610.00;5009175;28;20034;-61
2021/05/28 02:07:52;;;;;;;1152.30;999.90;;;;;;;18.77;44.43;100606.63;5007103;28;20482;-64
2021/05/28 02:10:18;;;;;;;1154.72;999.90;;;;;;;18.76;44.44;100604.94;5008482;28;20140;-62
2021/05/28 02:12:44;;;;;;;1153.82;999.90;;;;;;;18.77;44.40;100612.06;5004336;28;20048;-62
2021/05/28 02:15:10;;;;;;;1152.45;999.90;;;;;;;18.75;44.42;100608.69;5004314;28;20394;-61
2021/05/28 02:17:36;;;;;;;1152.28;999.90;;;;;;;18.75;44.35;100611.41;5010214;28;20042;-58
2021/05/28 02:20:02;;;;;;;1153.00;999.90;;;;;;;18.76;44.38;100614.97;5010620;28;20041;-63
2021/05/28 02:22:28;;;;;;;1156.13;999.90;;;;;;;18.76;44.39;100623.13;5007180;28;20046;-61
2021/05/28 02:24:54;;;;;;;1155.05;999.90;;;;;;;18.75;44.49;100619.56;5008531;28;20038;-61
2021/05/28 02:27:21;;;;;;;1154.05;999.90;;;;;;;18.76;44.24;100618.53;5009179;28;20053;-57
2021/05/28 02:29:46;;;;;;;1154.72;999.90;;;;;;;18.75;44.49;100619.56;5010176;28;20041;-60
2021/05/28 02:32:12;;;;;;;1150.57;999.90;;;;;;;18.74;44.24;100617.88;5009270;28;20025;-62
2021/05/28 02:34:38;;;;;;;1154.30;999.90;;;;;;;18.74;44.24;100623.31;5008667;28;20021;-60
2021/05/28 02:37:04;;;;;;;1155.97;999.90;;;;;;;18.75;44.47;100626.88;5009837;28;20045;-61
2021/05/28 02:39:30;;;;;;;1152.65;999.90;;;;;;;18.74;44.35;100626.03;5009526;28;20030;-62
2021/05/28 02:41:56;;;;;;;1154.20;999.90;;;;;;;18.75;44.18;100624.16;5009507;28;20030;-64
2021/05/28 02:44:22;;;;;;;1154.40;999.90;;;;;;;18.72;44.45;100625.41;5009308;28;20040;-62
2021/05/28 02:46:48;;;;;;;1153.03;999.90;;;;;;;18.72;44.35;100619.97;5010311;28;20420;-62
2021/05/28 02:49:14;;;;;;;1152.53;999.90;;;;;;;18.71;44.41;100629.16;5009050;28;20038;-64
2021/05/28 02:51:40;;;;;;;1151.32;999.90;;;;;;;18.72;44.30;100621.84;5010356;28;20026;-63
2021/05/28 02:54:06;;;;;;;1153.05;999.90;;;;;;;18.71;44.17;100623.72;5008772;28;20375;-58
2021/05/28 02:56:32;;;;;;;1152.25;999.90;;;;;;;18.71;44.22;100621.00;5009295;28;20036;-62
2021/05/28 02:58:58;;;;;;;1155.13;999.90;;;;;;;18.71;44.62;100626.44;5009245;28;20046;-58
2021/05/28 03:01:24;;;;;;;1152.60;999.90;;;;;;;18.70;44.40;100631.00;5009497;28;20505;-59
2021/05/28 03:03:50;;;;;;;1150.50;999.90;;;;;;;18.70;44.28;100633.72;5008148;28;20084;-59
2021/05/28 03:06:16;;;;;;;1151.22;999.90;;;;;;;18.70;44.36;100633.72;5009177;28;20038;-62
2021/05/28 03:08:42;;;;;;;1151.53;999.90;;;;;;;18.69;44.57;100634.75;5008972;28;20030;-62
2021/05/28 03:11:08;;;;;;;1151.80;999.90;;;;;;;18.68;44.28;100643.94;5009317;28;20030;-63
2021/05/28 03:13:33;;;;;;;1152.53;999.90;;;;;;;18.70;44.37;100643.75;5008122;28;20533;-62
2021/05/28 03:15:59;;;;;;;1153.63;999.90;;;;;;;18.69;44.14;100647.50;5006544;28;20036;-61
2021/05/28 03:18:33;;;;;;;1153.80;999.90;;;;;;;18.68;44.33;100643.09;5008566;28;20394;-62
2021/05/28 03:24:02;;;;;;;1152.00;999.90;;;;;;;18.66;44.32;100648.72;4944426;28;20052;-61
2021/05/28 03:26:29;;;;;;;1153.55;999.90;;;;;;;18.67;44.36;100655.00;4994103;28;20046;-62
2021/05/28 03:28:56;;;;;;;1153.10;999.90;;;;;;;18.66;44.41;100665.03;5009081;28;20037;-61
2021/05/28 03:31:23;;;;;;;1154.97;999.90;;;;;;;18.67;44.38;100664.00;5008701;28;20036;-62
2021/05/28 03:33:49;;;;;;;1151.90;999.90;;;;;;;18.66;44.13;100665.03;5007526;28;20033;-61
2021/05/28 03:36:16;;;;;;;1151.80;999.90;;;;;;;18.66;44.27;100658.75;5009902;28;20032;-62
2021/05/28 03:38:45;;;;;;;1153.40;999.90;;;;;;;18.65;44.36;100657.91;5010294;28;20044;-61
2021/05/28 03:41:11;;;;;;;1151.85;999.90;;;;;;;18.65;44.47;100659.78;5012527;28;20025;-59
2021/05/28 03:43:37;;;;;;;1151.97;999.90;;;;;;;18.65;44.42;100665.22;5011402;28;20044;-59
2021/05/28 03:46:03;;;;;;;1156.32;999.90;;;;;;;18.65;44.45;100668.78;5012391;28;20037;-65
2021/05/28 03:48:30;;;;;;;1150.95;999.90;;;;;;;18.66;44.26;100665.03;5013054;28;20393;-58
2021/05/28 03:50:56;;;;;;;1151.88;999.90;;;;;;;18.65;44.32;100667.94;5012875;28;20030;-60
2021/05/28 03:53:22;;;;;;;1152.47;999.90;;;;;;;18.64;44.48;100660.81;5004208;28;20460;-60
2021/05/28 03:55:48;;;;;;;1150.32;999.90;;;;;;;18.65;44.34;100662.50;5011789;28;20040;-62
2021/05/28 03:58:14;;;;;;;1151.10;999.90;;;;;;;18.64;44.29;100660.81;5013548;28;20474;-58
2021/05/28 04:00:40;;;;;;;1150.43;999.90;;;;;;;18.64;44.37;100668.97;4998600;28;20038;-58
2021/05/28 04:03:06;;;;;;;1151.53;999.90;;;;;;;18.64;44.35;100663.53;4995911;28;20065;-61
2021/05/28 04:05:33;;;;;;;1152.75;999.90;;;;;;;18.64;44.45;100667.09;5011768;28;21569;-60
2021/05/28 04:08:00;;;;;;;1150.63;999.90;;;;;;;18.64;44.12;100666.25;5012071;28;20034;-64
2021/05/28 04:10:26;;;;;;;1151.55;999.90;;;;;;;18.64;44.23;100671.69;5003783;28;20050;-59
2021/05/28 04:12:55;;;;;;;1150.30;999.90;;;;;;;18.65;44.17;100678.81;5010433;28;20041;-62
2021/05/28 04:15:21;;;;;;;1152.10;999.90;;;;;;;18.65;44.43;100681.53;5006134;28;20462;-60
2021/05/28 04:17:47;;;;;;;1152.50;999.90;;;;;;;18.65;44.07;100678.81;5009643;28;20462;-61
2021/05/28 04:20:13;;;;;;;1153.65;999.90;;;;;;;18.64;44.37;100677.13;5011955;28;20049;-62
2021/05/28 04:22:39;;;;;;;1152.35;999.90;;;;;;;18.64;44.34;100682.56;5011136;28;20022;-61
2021/05/28 04:25:06;;;;;;;1152.18;999.90;;;;;;;18.63;44.30;100681.69;5012436;28;20042;-61
2021/05/28 04:27:32;;;;;;;1151.63;999.90;;;;;;;18.64;44.38;100686.13;5012016;28;20030;-58
2021/05/28 04:29:58;;;;;;;1152.03;999.90;;;;;;;18.64;44.30;100685.28;5012462;28;20030;-59
2021/05/28 04:32:24;;;;;;;1152.88;999.90;;;;;;;18.63;44.15;100692.56;5011017;28;20057;-64
2021/05/28 04:34:50;;;;;;;1150.07;999.90;;;;;;;18.62;44.33;100690.88;5011886;28;20040;-58
2021/05/28 04:37:16;;;;;;;1151.00;999.90;;;;;;;18.62;44.42;100690.88;5012004;28;20056;-63
2021/05/28 04:39:42;;;;;;;1150.03;999.90;;;;;;;18.62;44.39;100696.31;5012141;28;20038;-62
2021/05/28 04:42:07;;;;;;;1152.18;999.90;;;;;;;18.62;44.26;100707.19;5012616;28;20040;-63
2021/05/28 04:44:33;;;;;;;1153.65;999.90;;;;;;;18.61;44.50;100700.06;5010322;28;20494;-62
2021/05/28 04:46:59;;;;;;;1152.13;999.90;;;;;;;18.61;44.16;100704.66;5011197;28;20033;-61
2021/05/28 04:49:25;;;;;;;1152.97;999.90;;;;;;;18.62;44.55;100712.63;5011048;28;20426;-62
2021/05/28 04:51:51;;;;;;;1153.88;999.90;;;;;;;18.62;44.41;100711.78;5011541;28;20473;-61
2021/05/28 04:54:17;;;;;;;1153.55;999.90;;;;;;;18.61;44.31;100712.81;5010479;28;20043;-61
2021/05/28 04:56:43;;;;;;;1150.82;999.90;;;;;;;18.61;44.34;100710.09;5012176;28;20037;-61
2021/05/28 04:59:09;;;;;;;1153.85;999.90;;;;;;;18.59;44.36;100718.44;5010610;28;20885;-61
2021/05/28 05:01:35;;;;;;;1153.07;999.90;;;;;;;18.61;44.28;100720.97;5011368;28;20062;-62
2021/05/28 05:04:01;;;;;;;1153.78;999.90;;;;;;;18.59;44.43;100720.31;5010543;28;20033;-60
2021/05/28 05:06:27;;;;;;;1152.22;999.90;;;;;;;18.59;44.25;100729.31;5009731;28;20038;-60
2021/05/28 05:08:53;;;;;;;1150.82;999.90;;;;;;;18.58;44.37;100727.59;5010507;28;20136;-59
2021/05/28 05:11:19;;;;;;;1152.72;999.90;;;;;;;18.59;44.22;100733.91;5011816;28;20054;-56
2021/05/28 05:13:45;;;;;;;1150.28;999.90;;;;;;;18.61;44.42;100737.28;5002609;28;20026;-62
2021/05/28 05:16:11;;;;;;;1154.32;999.90;;;;;;;18.60;44.30;100736.44;5000450;28;20044;-63
2021/05/28 05:18:37;;;;;;;1150.80;999.90;;;;;;;18.59;44.43;100736.63;5003496;28;20029;-62
2021/05/28 05:21:03;;;;;;;1151.03;999.90;;;;;;;18.59;44.31;100731.19;5011263;28;20628;-61
2021/05/28 05:23:28;;;;;;;1153.30;999.90;;;;;;;18.58;44.38;100730.31;5011036;28;20037;-60
2021/05/28 05:25:54;;;;;;;1152.30;999.90;;;;;;;18.59;44.12;100725.75;5009179;28;20486;-61
2021/05/28 05:28:22;;;;;;;1152.22;999.90;;;;;;;18.64;44.16;100737.78;5012081;28;20032;-58
2021/05/28 05:30:48;;;;;;;1153.35;999.90;;;;;;;18.86;44.11;100732.47;5009556;28;20030;-55
2021/05/28 05:33:14;;;;;;;1152.72;999.90;;;;;;;18.97;43.71;100746.47;5008101;28;20042;-54
2021/05/28 05:35:40;;;;;;;1153.57;999.90;;;;;;;19.07;43.57;100748.06;5011666;28;20507;-54
2021/05/28 05:38:08;;;;;;;1152.43;999.90;;;;;;;19.15;43.45;100750.66;5010228;28;20028;-51
2021/05/28 05:40:36;;;;;;;1150.25;999.90;;;;;;;19.19;43.41;100743.84;5011388;28;20046;-50
2021/05/28 05:43:02;;;;;;;1158.88;999.90;;;;;;;19.24;43.36;100757.72;5009387;28;20046;-57
2021/05/28 05:45:28;;;;;;;1157.03;999.90;;;;;;;19.27;43.22;100760.03;5010924;28;20525;-53
2021/05/28 05:47:53;;;;;;;1159.43;999.90;;;;;;;19.29;43.08;100753.38;5010623;28;20048;-53
2021/05/28 05:50:20;;;;;;;1160.13;999.90;;;;;;;19.30;43.12;100756.97;5010658;28;20041;-57
2021/05/28 05:52:46;;;;;;;1157.22;999.90;;;;;;;19.36;43.01;100763.53;5009148;28;20046;-57
2021/05/28 05:55:12;;;;;;;1157.28;999.90;;;;;;;19.33;43.09;100759.31;5010564;28;20037;-53
2021/05/28 05:57:38;;;;;;;1137.07;999.90;;;;;;;19.36;43.16;100753.47;5010890;28;20397;-57
2021/05/28 06:00:06;;;;;;;1139.20;999.90;;;;;;;19.30;43.17;100754.25;5011478;28;20034;-53
2021/05/28 06:02:32;;;;;;;1142.35;999.90;;;;;;;19.30;43.22;100759.69;5007943;28;20058;-54
2021/05/28 06:04:58;;;;;;;1142.80;999.90;;;;;;;19.34;43.20;100761.00;5008463;28;20042;-51
2021/05/28 06:07:24;;;;;;;1141.18;999.90;;;;;;;19.28;43.18;100756.28;5008948;28;20036;-56
2021/05/28 06:09:50;;;;;;;1140.22;999.90;;;;;;;19.22;43.52;100762.50;5010530;28;20037;-59
2021/05/28 06:12:16;;;;;;;1139.55;999.90;;;;;;;19.17;43.54;100759.47;5008824;28;20038;-57
2021/05/28 06:14:42;;;;;;;1142.38;999.90;;;;;;;19.13;43.67;100763.63;5005640;28;20073;-56
2021/05/28 06:17:08;;;;;;;1142.80;999.90;;;;;;;19.10;43.91;100762.13;5001704;28;20033;-58
2021/05/28 06:19:34;;;;;;;1143.13;999.90;;;;;;;19.09;43.76;100767.75;5006377;28;20053;-58
2021/05/28 06:22:00;;;;;;;1144.95;999.90;;;;;;;19.07;43.71;100767.09;5007889;28;20040;-58
2021/05/28 06:24:26;;;;;;;1152.18;999.90;;;;;;;19.05;43.63;100772.69;5008874;28;20038;-54
2021/05/28 06:26:51;;;;;;;1141.82;999.90;;;;;;;19.05;43.82;100771.88;5009907;28;20048;-55
2021/05/28 06:29:17;;;;;;;1146.22;999.90;;;;;;;19.01;44.04;100776.84;5010458;28;20029;-52
2021/05/28 06:31:44;;;;;;;1147.50;999.90;;;;;;;19.01;43.92;100781.44;5009656;28;20738;-55
2021/05/28 06:34:10;;;;;;;1156.53;999.90;;;;;;;19.01;44.20;100779.56;5008889;28;20037;-54
2021/05/28 06:36:36;;;;;;;1158.13;999.90;;;;;;;19.01;44.03;100787.72;5009959;28;20021;-53
2021/05/28 06:39:02;;;;;;;1156.40;999.90;;;;;;;18.99;44.04;100777.03;5010632;28;20047;-55
2021/05/28 06:41:28;;;;;;;1156.53;999.90;;;;;;;19.06;43.77;100784.44;5003725;28;20045;-54
2021/05/28 06:43:54;;;;;;;1159.22;999.90;;;;;;;19.11;43.85;100788.28;4995035;28;20505;-56
2021/05/28 06:46:20;;;;;;;1158.20;999.90;;;;;;;19.13;43.62;100799.84;5006377;28;20052;-58
2021/05/28 06:48:46;;;;;;;1157.05;999.90;;;;;;;19.12;43.56;100800.88;5005354;28;20037;-54
2021/05/28 06:51:12;;;;;;;1157.22;999.90;;;;;;;19.10;43.65;100805.66;5006889;28;20041;-59
2021/05/28 06:53:38;;;;;;;1157.57;999.90;;;;;;;19.09;43.69;100812.13;5007185;28;20025;-53
2021/05/28 06:56:04;;;;;;;1156.97;999.90;;;;;;;19.09;43.96;100817.56;5007999;28;20474;-55
2021/05/28 06:58:30;;;;;;;1155.75;999.90;;;;;;;19.10;43.84;100813.81;5008070;28;20049;-58
2021/05/28 07:00:57;;;;;;;1157.05;999.90;;;;;;;19.11;43.66;100814.66;5004937;28;20040;-55
2021/05/28 07:03:22;;;;;;;1158.53;999.90;;;;;;;19.12;43.67;100816.34;5001955;28;20045;-57
2021/05/28 07:05:49;;;;;;;1158.05;999.90;;;;;;;19.11;43.64;100820.94;5002947;28;20026;-58
2021/05/28 07:08:15;;;;;;;1155.38;999.90;;;;;;;19.13;43.61;100828.91;5008983;28;20028;-54
2021/05/28 07:10:41;;;;;;;1154.25;999.90;;;;;;;19.15;43.76;100829.56;5010607;28;20405;-55
2021/05/28 07:13:06;;;;;;;1158.25;999.90;;;;;;;19.15;43.75;100824.97;5004919;28;20036;-58
2021/05/28 07:15:32;;;;;;;1154.53;999.90;;;;;;;19.15;43.64;100833.13;5001695;28;20045;-60
2021/05/28 07:17:58;;;;;;;1156.65;999.90;;;;;;;19.13;43.81;100837.06;5007272;28;20022;-56
2021/05/28 07:20:24;;;;;;;1155.25;999.90;;;;;;;19.15;43.73;100838.56;5008976;28;20371;-61
2021/05/28 07:22:51;;;;;;;1155.05;999.90;;;;;;;19.16;43.75;100842.13;5009024;28;20052;-55
2021/05/28 07:25:17;;;;;;;1157.22;999.90;;;;;;;19.16;43.48;100836.69;5008459;28;20034;-58
2021/05/28 07:27:44;;;;;;;1158.30;999.90;;;;;;;19.18;43.76;100842.78;5005389;28;20509;-58
2021/05/28 07:30:11;;;;;;;1157.40;999.90;;;;;;;19.22;43.50;100828.66;5008664;28;20038;-57
2021/05/28 07:32:37;;;;;;;1157.68;999.90;;;;;;;19.23;43.69;100837.66;5009645;28;20034;-59
2021/05/28 07:35:05;;;;;;;1155.78;999.90;;;;;;;19.20;43.61;100835.31;5009268;28;20041;-57
2021/05/28 07:37:31;;;;;;;1158.03;999.90;;;;;;;19.19;43.81;100836.34;5007446;28;20037;-56
2021/05/28 07:39:57;;;;;;;1157.05;999.90;;;;;;;19.16;43.78;100839.41;5009417;28;20033;-58
2021/05/28 07:42:23;;;;;;;1159.78;999.90;;;;;;;19.17;43.71;100838.38;5008338;28;20040;-59
2021/05/28 07:44:49;;;;;;;1154.85;999.90;;;;;;;19.17;44.19;100839.22;5008037;28;20038;-58
2021/05/28 07:47:15;;;;;;;1157.00;999.90;;;;;;;19.17;44.02;100852.00;5008418;28;20040;-59
2021/05/28 07:49:41;;;;;;;1157.82;999.90;;;;;;;19.17;43.87;100843.81;5007957;28;20147;-59
2021/05/28 07:52:07;;;;;;;1157.97;999.90;;;;;;;19.15;44.04;100843.16;5008223;28;20102;-59
2021/05/28 07:54:34;;;;;;;1157.22;999.90;;;;;;;19.15;43.89;100843.16;5008223;28;20050;-57
2021/05/28 07:57:01;;;;;;;1158.20;999.90;;;;;;;19.16;43.90;100845.69;5008456;28;20037;-59
2021/05/28 07:59:27;;;;;;;1160.57;999.90;;;;;;;19.14;43.85;100839.59;5009165;28;20033;-59
2021/05/28 08:01:53;;;;;;;1158.15;999.90;;;;;;;19.18;43.73;100840.94;5007768;28;20393;-53
2021/05/28 08:04:18;;;;;;;1157.28;999.90;;;;;;;19.17;43.83;100841.94;5009172;28;20506;-56
2021/05/28 08:06:44;;;;;;;1156.63;999.90;;;;;;;19.19;43.82;100836.34;5007856;28;20038;-57
2021/05/28 08:09:10;;;;;;;1159.75;999.90;;;;;;;19.19;43.77;100841.78;5008070;28;20053;-59
2021/05/28 08:11:36;;;;;;;1158.03;999.90;;;;;;;19.20;43.69;100846.19;5009409;28;20081;-58
2021/05/28 08:14:02;;;;;;;1156.78;999.90;;;;;;;19.19;43.60;100853.53;5005926;28;20048;-58
2021/05/28 08:16:28;;;;;;;1158.10;999.90;;;;;;;19.21;43.80;100854.19;5007815;28;20030;-59
2021/05/28 08:18:54;;;;;;;1156.95;999.90;;;;;;;19.24;43.63;100850.22;5004659;28;20022;-59
2021/05/28 08:21:20;;;;;;;1157.25;999.90;;;;;;;19.28;43.37;100851.53;5007553;28;20038;-57
2021/05/28 08:23:46;;;;;;;1157.88;999.90;;;;;;;19.28;43.37;100854.25;5009390;28;20048;-59
2021/05/28 08:26:12;;;;;;;1159.65;999.90;;;;;;;19.21;43.08;100848.72;5009599;28;20033;-60
2021/05/28 08:28:39;;;;;;;1157.95;999.90;;;;;;;19.25;43.26;100849.19;5011168;28;20033;-62
2021/05/28 08:31:06;;;;;;;1156.95;999.90;;;;;;;19.31;43.34;100848.47;5008393;28;20022;-61
2021/05/28 08:33:33;;;;;;;1162.00;999.90;;;;;;;19.33;43.33;100838.22;5012283;28;20037;-63
2021/05/28 08:35:59;;;;;;;1159.32;999.90;;;;;;;19.32;43.25;100843.88;5011705;28;20052;-62
2021/05/28 08:38:25;;;;;;;1157.22;999.90;;;;;;;19.31;43.13;100837.59;5010110;28;20668;-62
2021/05/28 08:40:51;;;;;;;1161.72;999.90;;;;;;;19.33;43.14;100829.22;5010665;28;20049;-62
2021/05/28 08:43:17;;;;;;;1162.22;999.90;;;;;;;19.32;42.90;100825.66;5011246;28;20210;-63
2021/05/28 08:45:46;;;;;;;1159.00;999.90;;;;;;;19.34;42.98;100841.81;5013621;28;20030;-63
2021/05/28 08:48:14;;;;;;;1158.03;999.90;;;;;;;19.30;42.91;100835.91;5013427;28;20505;-60
2021/05/28 08:50:42;;;;;;;1160.15;999.90;;;;;;;19.27;43.23;100836.25;5013020;28;20060;-60
2021/05/28 08:53:10;;;;;;;1157.53;999.90;;;;;;;19.19;42.94;100841.78;5013984;28;20417;-63
2021/05/28 08:55:40;;;;;;;1155.88;999.90;;;;;;;19.17;43.03;100847.41;5013734;28;20049;-62
2021/05/28 08:58:07;;;;;;;1155.55;999.90;;;;;;;19.16;42.77;100844.84;5013803;28;20631;-64
2021/05/28 09:00:35;;;;;;;1157.00;999.90;;;;;;;19.16;42.42;100842.97;5013448;28;20413;-62
2021/05/28 09:03:27;;;;;;;1158.53;999.90;;;;;;;19.16;42.08;100832.09;5014043;28;20037;-65
2021/05/28 09:05:55;;;;;;;1159.03;999.90;;;;;;;19.17;42.27;100844.66;5013073;28;20029;-64
2021/05/28 09:08:29;;;;;;;1158.93;999.90;;;;;;;19.19;42.29;100837.19;5004783;28;20053;-60
2021/05/28 09:11:06;;;;;;;1158.82;999.90;;;;;;;19.23;42.12;100843.09;5004165;28;20026;-61
2021/05/28 09:13:33;;;;;;;1153.45;999.90;;;;;;;19.26;42.30;100859.88;5004958;28;20513;-63
2021/05/28 09:16:13;;;;;;;1152.97;999.90;;;;;;;19.23;42.32;100848.53;5007796;28;20033;-61
2021/05/28 09:18:56;;;;;;;1157.88;999.90;;;;;;;19.20;42.11;100852.50;5000343;28;20022;-62
2021/05/28 09:21:23;;;;;;;1159.57;999.90;;;;;;;19.19;41.60;100849.97;5005015;28;20401;-62
2021/05/28 09:23:51;;;;;;;1156.35;999.90;;;;;;;19.21;41.42;100848.72;5013833;28;20038;-61
2021/05/28 09:26:17;;;;;;;1160.55;999.90;;;;;;;19.22;41.06;100842.25;5013378;28;20025;-61
2021/05/28 09:28:48;;;;;;;1158.90;999.90;;;;;;;19.23;40.84;100841.22;5013232;28;20034;-62
2021/05/28 09:31:19;;;;;;;1159.22;999.90;;;;;;;19.27;41.34;100841.69;5012641;28;20041;-62
2021/05/28 09:33:51;;;;;;;1158.63;999.90;;;;;;;19.31;41.26;100843.03;4995681;22;20437;-83
2021/05/28 09:36:25;;;;;;;1159.40;999.90;;;;;;;19.28;41.38;100840.66;4963139;28;20045;-84
2021/05/28 09:39:08;;;;;;;1162.07;999.90;;;;;;;19.26;41.48;100845.44;4967654;28;20490;-85
2021/05/28 09:41:51;;;;;;;1158.03;999.90;;;;;;;19.23;41.54;100848.53;4961896;29;20059;-84
2021/05/28 09:44:27;;;;;;;1158.70;999.90;;;;;;;19.26;41.81;100850.88;4962714;29;20030;-84
2021/05/28 09:47:21;;;;;;;1159.57;999.90;;;;;;;19.28;41.63;100843.38;4960838;29;20039;-84
2021/05/28 09:49:50;;;;;;;1162.75;999.90;;;;;;;19.23;41.36;100843.09;4963994;28;20043;-85
2021/05/28 09:52:25;;;;;;;1162.30;999.90;;;;;;;19.20;41.67;100846.19;4963659;28;20045;-84
2021/05/28 09:55:12;;;;;;;1159.38;999.90;;;;;;;19.20;41.68;100851.66;4981461;28;20042;-84
2021/05/28 09:57:49;;;;;;;1160.88;999.90;;;;;;;19.19;41.93;100855.41;4963479;28;20042;-84
2021/05/28 10:00:36;;;;;;;1158.32;999.90;;;;;;;19.22;41.82;100850.41;4981112;28;20038;-85
2021/05/28 10:03:24;;;;;;;1159.55;999.90;;;;;;;19.24;41.40;100852.94;4970393;28;20031;-84
2021/05/28 10:05:57;;;;;;;1160.82;999.90;;;;;;;19.27;41.63;100858.00;4961066;28;20053;-84
2021/05/28 10:08:25;;;;;;;1156.93;999.90;;;;;;;19.29;41.41;100839.63;4979263;23;20423;-57
2021/05/28 10:10:53;;;;;;;1157.50;999.90;;;;;;;19.26;41.33;100842.72;4973053;28;20045;-54
2021/05/28 10:13:21;;;;;;;1159.65;999.90;;;;;;;19.28;41.58;100840.66;4968380;28;20038;-62
2021/05/28 10:15:49;;;;;;;1158.10;999.90;;;;;;;19.32;41.59;100836.53;4969145;28;20427;-60
2021/05/28 10:18:16;;;;;;;1158.18;999.90;;;;;;;19.33;41.66;100840.97;4968906;28;20035;-58
2021/05/28 10:20:48;;;;;;;1159.35;999.90;;;;;;;19.36;41.55;100837.84;4968224;28;20029;-58
2021/05/28 10:23:17;;;;;;;1157.50;999.90;;;;;;;19.38;41.62;100840.38;4970418;28;20027;-55
2021/05/28 10:25:45;;;;;;;1158.00;999.90;;;;;;;19.32;41.79;100833.81;4964337;28;20035;-53
2021/05/28 10:28:16;;;;;;;1156.80;999.90;;;;;;;19.28;41.84;100833.34;4968648;28;20023;-57
2021/05/28 10:30:44;;;;;;;1160.20;999.90;;;;;;;19.34;41.83;100837.19;4963841;28;20035;-57
2021/05/28 10:33:14;;;;;;;1158.45;999.90;;;;;;;19.37;41.73;100835.97;4968112;28;20483;-53
2021/05/28 10:35:44;;;;;;;1160.07;999.90;;;;;;;19.36;41.51;100831.56;4969893;28;20042;-57
2021/05/28 10:38:35;;;;;;;1159.82;999.90;;;;;;;19.37;41.64;100831.38;4970642;28;20062;-55
2021/05/28 10:41:06;;;;;;;1156.10;999.90;;;;;;;19.38;41.55;100818.59;4970900;28;20038;-58
2021/05/28 10:43:38;;;;;;;1158.55;999.90;;;;;;;19.37;41.70;100825.94;4966615;28;20640;-53
2021/05/28 10:46:10;;;;;;;1155.27;999.90;;;;;;;19.33;41.67;100830.06;4970147;28;20399;-56
2021/05/28 10:48:39;;;;;;;1156.28;999.90;;;;;;;19.33;41.63;100835.50;4967329;28;20614;-55
2021/05/28 10:51:41;;;;;;;1160.13;999.90;;;;;;;19.31;41.72;100837.59;4967695;28;20054;-56